createdAt,value
2018-04-26T00:01:13.139Z,6.00
2018-04-26T00:03:40.612Z,4.10
2018-04-26T00:06:08.077Z,3.80
2018-04-26T00:08:35.533Z,4.63
2018-04-26T00:11:03.031Z,5.10
2018-04-26T00:13:30.500Z,6.30
2018-04-26T00:15:57.987Z,4.63
2018-04-26T00:18:25.473Z,4.50
2018-04-26T00:20:52.912Z,3.87
2018-04-26T00:23:20.400Z,4.43
2018-04-26T00:25:47.843Z,5.13
2018-04-26T00:28:15.343Z,4.33
2018-04-26T00:30:42.857Z,4.73
2018-04-26T00:33:10.343Z,4.37
2018-04-26T00:35:37.813Z,4.13
2018-04-26T00:38:05.271Z,3.63
2018-04-26T00:40:32.708Z,4.10
2018-04-26T00:43:00.148Z,4.20
2018-04-26T00:45:27.684Z,4.33
2018-04-26T00:47:55.222Z,4.20
2018-04-26T00:50:22.675Z,4.80
2018-04-26T00:52:50.156Z,4.60
2018-04-26T00:55:17.626Z,4.77
2018-04-26T00:57:45.100Z,4.43
2018-04-26T01:00:12.563Z,4.60
2018-04-26T01:02:40.118Z,5.27
2018-04-26T01:05:07.568Z,5.40
2018-04-26T01:07:35.103Z,5.50
2018-04-26T01:10:02.606Z,4.80
2018-04-26T01:12:30.114Z,5.07
2018-04-26T01:14:57.614Z,4.93
2018-04-26T01:17:25.063Z,5.80
2018-04-26T01:19:52.554Z,4.33
2018-04-26T01:22:20.006Z,4.53
2018-04-26T01:24:47.448Z,5.00
2018-04-26T01:27:14.941Z,5.10
2018-04-26T01:29:42.419Z,4.53
2018-04-26T01:32:09.871Z,5.10
2018-04-26T01:34:37.373Z,5.53
2018-04-26T01:37:16.675Z,5.00
2018-04-26T01:39:44.228Z,5.93
2018-04-26T01:42:11.664Z,5.33
2018-04-26T01:44:39.106Z,5.20
2018-04-26T01:47:06.564Z,6.20
2018-04-26T01:49:34.040Z,5.40
2018-04-26T01:52:01.520Z,6.47
2018-04-26T01:54:29.011Z,5.77
2018-04-26T01:56:56.451Z,6.07
2018-04-26T01:59:23.920Z,5.93
2018-04-26T02:01:51.451Z,6.07
2018-04-26T02:04:18.926Z,5.77
2018-04-26T02:06:46.416Z,6.40
2018-04-26T02:09:13.892Z,6.23
2018-04-26T02:11:41.390Z,6.20
2018-04-26T02:14:08.881Z,5.50
2018-04-26T02:16:36.369Z,5.70
2018-04-26T02:19:03.877Z,5.53
2018-04-26T02:21:31.319Z,5.83
2018-04-26T02:23:58.792Z,7.00
2018-04-26T02:26:26.264Z,7.07
2018-04-26T02:28:53.708Z,6.50
2018-04-26T02:31:21.185Z,5.83
2018-04-26T02:33:48.696Z,6.73
2018-04-26T02:36:16.177Z,6.53
2018-04-26T02:38:43.663Z,7.37
2018-04-26T02:41:11.231Z,7.73
2018-04-26T02:43:38.751Z,9.00
2018-04-26T02:46:06.207Z,9.53
2018-04-26T02:48:33.696Z,7.70
2018-04-26T02:51:01.229Z,6.77
2018-04-26T02:53:28.676Z,7.57
2018-04-26T02:55:56.166Z,7.80
2018-04-26T02:58:23.833Z,7.20
2018-04-26T03:00:51.285Z,7.17
2018-04-26T03:03:18.767Z,7.43
2018-04-26T03:05:46.219Z,7.70
2018-04-26T03:08:13.720Z,6.03
2018-04-26T03:10:41.204Z,6.80
2018-04-26T03:13:08.680Z,7.50
2018-04-26T03:15:36.134Z,7.30
2018-04-26T03:18:03.625Z,8.57
2018-04-26T03:20:31.104Z,8.53
2018-04-26T03:22:58.612Z,9.37
2018-04-26T03:25:26.064Z,9.67
2018-04-26T03:27:53.604Z,7.70
2018-04-26T03:30:21.096Z,8.83
2018-04-26T03:32:48.540Z,8.90
2018-04-26T03:35:15.997Z,10.50
2018-04-26T03:37:43.555Z,9.60
2018-04-26T03:40:11.049Z,9.07
2018-04-26T03:42:38.610Z,9.00
2018-04-26T03:45:06.067Z,8.40
2018-04-26T03:47:33.511Z,8.00
2018-04-26T03:50:00.972Z,9.40
2018-04-26T03:52:28.445Z,9.63
2018-04-26T03:54:55.900Z,8.50
2018-04-26T03:57:23.391Z,8.13
2018-04-26T04:00:02.713Z,7.87
2018-04-26T04:02:42.028Z,7.90
2018-04-26T04:05:21.205Z,8.20
2018-04-26T04:07:48.656Z,8.23
2018-04-26T04:10:16.184Z,8.33
2018-04-26T04:12:43.664Z,8.60
2018-04-26T04:15:11.195Z,9.37
2018-04-26T04:17:38.660Z,8.53
2018-04-26T04:20:06.112Z,8.80
2018-04-26T04:22:33.568Z,9.90
2018-04-26T04:25:01.025Z,8.93
2018-04-26T04:27:28.507Z,8.37
2018-04-26T04:29:56.050Z,8.43
2018-04-26T04:32:23.594Z,9.20
2018-04-26T04:34:51.048Z,10.23
2018-04-26T04:37:18.542Z,8.30
2018-04-26T04:39:46.018Z,10.20
2018-04-26T04:42:13.556Z,10.00
2018-04-26T04:44:41.053Z,8.60
2018-04-26T04:47:08.496Z,8.70
2018-04-26T04:49:36.034Z,9.83
2018-04-26T04:52:03.523Z,8.50
2018-04-26T04:54:31.055Z,9.90
2018-04-26T04:56:58.619Z,9.97
2018-04-26T04:59:26.068Z,9.73
2018-04-26T05:01:53.520Z,9.20
2018-04-26T05:04:21.039Z,10.50
2018-04-26T05:06:48.549Z,8.70
2018-04-26T05:09:16.130Z,8.90
2018-04-26T05:11:43.638Z,9.67
2018-04-26T05:14:11.075Z,9.70
2018-04-26T05:16:38.523Z,10.50
2018-04-26T05:19:05.988Z,11.13
2018-04-26T05:21:33.431Z,9.27
2018-04-26T05:24:00.912Z,13.97
2018-04-26T05:26:28.412Z,10.97
2018-04-26T05:28:55.865Z,9.90
2018-04-26T05:31:23.332Z,9.80
2018-04-26T05:33:50.876Z,9.23
2018-04-26T05:36:18.357Z,10.00
2018-04-26T05:38:45.864Z,12.07
2018-04-26T05:41:13.308Z,9.90
2018-04-26T05:43:40.746Z,11.93
2018-04-26T05:46:08.248Z,10.50
2018-04-26T05:48:35.761Z,11.30
2018-04-26T05:51:03.306Z,10.50
2018-04-26T05:53:30.811Z,12.40
2018-04-26T05:55:58.370Z,11.20
2018-04-26T05:58:25.827Z,11.10
2018-04-26T06:00:53.391Z,10.83
2018-04-26T06:03:20.860Z,10.67
2018-04-26T06:05:48.303Z,9.97
2018-04-26T06:08:15.885Z,10.50
2018-04-26T06:10:43.366Z,10.80
2018-04-26T06:13:10.852Z,10.97
2018-04-26T06:15:38.368Z,8.70
2018-04-26T06:18:05.853Z,10.13
2018-04-26T06:20:33.302Z,9.50
2018-04-26T06:23:00.784Z,9.17
2018-04-26T06:25:28.253Z,9.60
2018-04-26T06:27:55.775Z,10.43
2018-04-26T06:30:23.279Z,10.80
2018-04-26T06:32:50.895Z,10.60
2018-04-26T06:35:18.378Z,11.77
2018-04-26T06:37:45.912Z,11.00
2018-04-26T06:40:13.421Z,11.37
2018-04-26T06:42:40.947Z,11.43
2018-04-26T06:45:08.404Z,10.47
2018-04-26T06:47:35.887Z,9.60
2018-04-26T06:50:03.400Z,10.10
2018-04-26T06:52:30.906Z,10.70
2018-04-26T06:54:58.363Z,9.43
2018-04-26T06:57:25.948Z,9.73
2018-04-26T06:59:53.437Z,11.03
2018-04-26T07:02:20.916Z,10.70
2018-04-26T07:04:48.416Z,9.93
2018-04-26T07:07:15.898Z,11.27
2018-04-26T07:09:43.401Z,10.27
2018-04-26T07:12:11.048Z,11.80
2018-04-26T07:14:38.439Z,12.13
2018-04-26T07:17:05.946Z,11.27
2018-04-26T07:19:33.440Z,11.60
2018-04-26T07:22:00.923Z,11.97
2018-04-26T07:24:28.458Z,11.77
2018-04-26T07:26:56.153Z,12.23
2018-04-26T07:29:23.745Z,13.67
2018-04-26T07:31:51.255Z,13.87
2018-04-26T07:34:18.761Z,14.77
2018-04-26T07:36:46.289Z,12.43
2018-04-26T07:39:13.784Z,12.20
2018-04-26T07:41:41.290Z,12.77
2018-04-26T07:44:08.835Z,11.20
2018-04-26T07:46:36.293Z,10.93
2018-04-26T07:49:03.751Z,11.93
2018-04-26T07:51:31.333Z,13.00
2018-04-26T07:53:58.873Z,11.40
2018-04-26T07:56:26.327Z,12.73
2018-04-26T07:58:53.941Z,12.90
2018-04-26T08:01:21.443Z,14.60
2018-04-26T08:03:48.900Z,14.70
2018-04-26T08:06:16.355Z,13.77
2018-04-26T08:08:43.835Z,14.50
2018-04-26T08:11:11.327Z,13.90
2018-04-26T08:13:38.817Z,14.87
2018-04-26T08:16:06.341Z,13.93
2018-04-26T08:18:33.843Z,12.37
2018-04-26T08:21:01.341Z,12.60
2018-04-26T08:23:28.890Z,13.87
2018-04-26T08:25:56.424Z,14.33
2018-04-26T08:28:23.873Z,14.37
2018-04-26T08:30:51.342Z,14.83
2018-04-26T08:33:18.830Z,15.93
2018-04-26T08:35:46.325Z,12.40
2018-04-26T08:38:13.824Z,13.30
2018-04-26T08:40:41.307Z,18.47
2018-04-26T08:43:08.879Z,16.60
2018-04-26T08:45:36.418Z,16.97
2018-04-26T08:48:03.856Z,16.97
2018-04-26T08:50:31.354Z,15.70
2018-04-26T08:52:58.853Z,14.50
2018-04-26T08:55:26.370Z,14.57
2018-04-26T08:57:53.898Z,16.90
2018-04-26T09:00:21.357Z,14.10
2018-04-26T09:02:48.811Z,15.10
2018-04-26T09:05:16.381Z,14.43
2018-04-26T09:07:43.853Z,15.77
2018-04-26T09:10:11.299Z,17.07
2018-04-26T09:12:38.771Z,17.50
2018-04-26T09:15:06.330Z,16.60
2018-04-26T09:17:33.804Z,10.90
2018-04-26T09:20:01.325Z,13.00
2018-04-26T09:22:28.909Z,10.23
2018-04-26T09:24:56.368Z,11.93
2018-04-26T09:27:23.854Z,9.33
2018-04-26T09:29:51.384Z,7.50
2018-04-26T09:32:18.955Z,4.80
2018-04-26T09:34:46.426Z,5.50
2018-04-26T09:37:13.904Z,4.60
2018-04-26T09:39:41.359Z,5.40
2018-04-26T09:42:08.827Z,4.47
2018-04-26T09:44:36.269Z,4.60
2018-04-26T09:47:03.724Z,5.60
2018-04-26T09:49:31.196Z,7.43
2018-04-26T09:51:58.642Z,4.70
2018-04-26T09:54:26.109Z,3.30
2018-04-26T09:56:53.611Z,3.83
2018-04-26T09:59:21.083Z,4.37
2018-04-26T10:01:48.645Z,3.63
2018-04-26T10:04:16.120Z,3.93
2018-04-26T10:06:49.140Z,4.90
2018-04-26T10:09:16.620Z,4.70
2018-04-26T10:11:44.093Z,3.57
2018-04-26T10:14:11.625Z,4.23
2018-04-26T10:16:39.119Z,4.70
2018-04-26T10:19:06.605Z,6.17
2018-04-26T10:21:34.128Z,5.27
2018-04-26T10:24:01.619Z,5.80
2018-04-26T10:26:29.118Z,4.97
2018-04-26T10:28:56.673Z,3.93
2018-04-26T10:31:24.232Z,4.00
2018-04-26T10:33:51.745Z,3.73
2018-04-26T10:36:19.199Z,3.73
2018-04-26T10:38:46.639Z,3.60
2018-04-26T10:41:14.193Z,4.77
2018-04-26T10:43:41.631Z,2.93
2018-04-26T10:46:09.109Z,3.30
2018-04-26T10:48:36.617Z,3.00
2018-04-26T10:51:04.101Z,2.70
2018-04-26T10:53:31.554Z,3.40
2018-04-26T10:55:59.058Z,2.97
2018-04-26T10:58:26.532Z,2.90
2018-04-26T11:00:54.032Z,3.17
2018-04-26T11:03:21.552Z,2.97
2018-04-26T11:05:49.000Z,3.30
2018-04-26T11:08:16.443Z,2.37
2018-04-26T11:10:43.937Z,3.20
2018-04-26T11:13:11.421Z,2.67
2018-04-26T11:15:38.985Z,2.80
2018-04-26T11:18:06.417Z,2.80
2018-04-26T11:20:33.874Z,3.03
2018-04-26T11:23:01.311Z,3.10
2018-04-26T11:25:28.806Z,3.30
2018-04-26T11:27:56.286Z,3.80
2018-04-26T11:30:23.792Z,3.00
2018-04-26T11:32:51.406Z,3.53
2018-04-26T11:35:18.880Z,3.13
2018-04-26T11:37:46.397Z,2.80
2018-04-26T11:40:13.887Z,2.80
2018-04-26T11:42:41.312Z,2.30
2018-04-26T11:45:08.828Z,12.47
2018-04-26T11:47:36.286Z,7.67
2018-04-26T11:50:03.789Z,6.70
2018-04-26T11:52:31.399Z,11.50
2018-04-26T11:54:58.826Z,3.30
2018-04-26T11:57:26.357Z,2.47
2018-04-26T11:59:53.832Z,9.50
2018-04-26T12:02:21.396Z,11.17
2018-04-26T12:04:48.811Z,5.43
2018-04-26T12:07:16.314Z,3.73
2018-04-26T12:09:43.795Z,3.17
2018-04-26T12:12:11.235Z,4.00
2018-04-26T12:14:38.707Z,2.50
2018-04-26T12:17:06.190Z,3.10
2018-04-26T12:19:33.726Z,3.00
2018-04-26T12:22:01.227Z,4.50
2018-04-26T12:24:28.685Z,3.40
2018-04-26T12:26:56.165Z,5.17
2018-04-26T12:29:23.705Z,4.63
2018-04-26T12:31:51.153Z,1.83
2018-04-26T12:34:18.624Z,2.33
2018-04-26T12:36:46.096Z,3.47
2018-04-26T12:39:13.649Z,2.90
2018-04-26T12:41:41.142Z,2.93
2018-04-26T12:44:08.627Z,2.87
2018-04-26T12:46:36.083Z,1.77
2018-04-26T12:49:03.597Z,3.40
2018-04-26T12:51:31.089Z,2.57
2018-04-26T12:53:58.555Z,2.53
2018-04-26T12:56:26.028Z,2.70
2018-04-26T12:58:53.507Z,2.07
2018-04-26T13:01:21.100Z,1.67
2018-04-26T13:03:48.557Z,2.63
2018-04-26T13:06:16.026Z,2.87
2018-04-26T13:08:43.533Z,4.77
2018-04-26T13:11:11.014Z,3.77
2018-04-26T13:13:38.516Z,2.70
2018-04-26T13:16:06.039Z,2.63
2018-04-26T13:18:33.538Z,2.73
2018-04-26T13:21:01.053Z,2.33
2018-04-26T13:23:28.491Z,2.80
2018-04-26T13:25:55.966Z,2.70
2018-04-26T13:28:23.413Z,3.33
2018-04-26T13:30:50.981Z,3.27
2018-04-26T13:33:18.459Z,2.97
2018-04-26T13:35:45.940Z,3.50
2018-04-26T13:38:13.388Z,3.10
2018-04-26T13:40:40.892Z,3.20
2018-04-26T13:43:08.345Z,3.40
2018-04-26T13:45:35.826Z,3.07
2018-04-26T13:48:03.282Z,3.27
2018-04-26T13:50:30.738Z,2.90
2018-04-26T13:52:58.272Z,2.87
2018-04-26T13:55:25.784Z,3.10
2018-04-26T13:57:53.263Z,2.80
2018-04-26T14:00:20.875Z,1.80
2018-04-26T14:02:48.354Z,2.43
2018-04-26T14:05:15.803Z,2.97
2018-04-26T14:07:43.292Z,3.70
2018-04-26T14:10:10.774Z,2.70
2018-04-26T14:12:38.220Z,2.53
2018-04-26T14:15:05.680Z,3.50
2018-04-26T14:17:33.125Z,3.07
2018-04-26T14:20:00.606Z,3.53
2018-04-26T14:22:28.124Z,7.33
2018-04-26T14:24:55.653Z,3.93
2018-04-26T14:27:23.151Z,3.30
2018-04-26T14:29:50.739Z,3.60
2018-04-26T14:32:18.212Z,3.77
2018-04-26T14:34:45.701Z,2.83
2018-04-26T14:37:13.235Z,2.93
2018-04-26T14:39:40.752Z,3.27
2018-04-26T14:42:08.212Z,2.80
2018-04-26T14:44:35.714Z,2.60
2018-04-26T14:47:03.197Z,2.00
2018-04-26T14:49:30.677Z,2.80
2018-04-26T14:51:58.247Z,1.97
2018-04-26T14:54:25.749Z,1.80
2018-04-26T14:56:53.271Z,2.73
2018-04-26T14:59:20.687Z,2.37
2018-04-26T15:01:48.128Z,2.73
2018-04-26T15:04:15.605Z,2.70
2018-04-26T15:06:43.117Z,2.23
2018-04-26T15:09:10.625Z,1.53
2018-04-26T15:11:38.233Z,2.40
2018-04-26T15:14:05.711Z,1.93
2018-04-26T15:16:33.196Z,2.37
2018-04-26T15:19:00.710Z,2.60
2018-04-26T15:21:28.159Z,3.90
2018-04-26T15:23:55.631Z,2.50
2018-04-26T15:26:23.125Z,3.53
2018-04-26T15:28:50.607Z,3.60
2018-04-26T15:31:18.079Z,3.30
2018-04-26T15:33:45.613Z,3.03
2018-04-26T15:36:13.058Z,3.07
2018-04-26T15:38:40.590Z,3.63
2018-04-26T15:41:08.122Z,3.40
2018-04-26T15:43:35.589Z,3.07
2018-04-26T15:46:03.081Z,3.17
2018-04-26T15:48:30.527Z,3.17
2018-04-26T15:50:57.993Z,3.30
2018-04-26T15:53:37.380Z,3.90
2018-04-26T15:56:16.881Z,2.77
2018-04-26T16:02:31.209Z,2.37
2018-04-26T16:05:16.233Z,2.60
2018-04-26T16:08:01.280Z,2.67
2018-04-26T16:10:46.344Z,3.23
2018-04-26T16:13:31.618Z,3.20
2018-04-26T16:16:13.777Z,2.50
2018-04-26T16:18:53.205Z,2.50
2018-04-26T16:21:36.051Z,2.57
2018-04-26T16:24:33.052Z,2.60
2018-04-26T16:27:18.151Z,3.77
2018-04-26T16:29:57.421Z,2.47
2018-04-26T16:32:36.692Z,3.37
2018-04-26T16:35:21.515Z,4.20
2018-04-26T16:38:06.594Z,3.00
2018-04-26T16:40:34.153Z,4.30
2018-04-26T16:43:01.939Z,3.20
2018-04-26T16:45:29.399Z,4.83
2018-04-26T16:47:56.869Z,4.17
2018-04-26T16:50:24.344Z,6.00
2018-04-26T16:52:51.787Z,3.07
2018-04-26T16:55:19.692Z,3.30
2018-04-26T16:57:47.190Z,3.63
2018-04-26T17:00:14.678Z,3.80
2018-04-26T17:02:42.145Z,3.03
2018-04-26T17:05:09.672Z,3.00
2018-04-26T17:07:37.144Z,2.70
2018-04-26T17:10:04.587Z,3.17
2018-04-26T17:12:32.054Z,3.00
2018-04-26T17:14:59.520Z,3.20
2018-04-26T17:17:27.002Z,3.40
2018-04-26T17:19:54.513Z,2.63
2018-04-26T17:22:21.967Z,3.70
2018-04-26T17:24:49.460Z,2.63
2018-04-26T17:27:16.981Z,3.27
2018-04-26T17:29:44.524Z,3.23
2018-04-26T17:32:11.985Z,3.50
2018-04-26T17:34:39.586Z,3.57
2018-04-26T17:37:07.151Z,7.33
2018-04-26T17:39:34.849Z,7.70
2018-04-26T17:42:02.600Z,4.50
2018-04-26T17:44:30.052Z,3.30
2018-04-26T17:46:57.554Z,5.47
2018-04-26T17:49:25.767Z,7.43
2018-04-26T17:51:53.285Z,5.70
2018-04-26T17:54:20.780Z,5.53
2018-04-26T17:56:48.252Z,5.20
2018-04-26T17:59:15.915Z,3.83
2018-04-26T18:01:43.391Z,6.97
2018-04-26T18:04:10.985Z,5.57
2018-04-26T18:06:38.476Z,5.60
2018-04-26T18:09:05.981Z,4.13
2018-04-26T18:11:33.517Z,7.97
2018-04-26T18:14:01.515Z,5.10
2018-04-26T18:16:28.971Z,5.90
2018-04-26T18:18:56.493Z,7.60
2018-04-26T18:21:23.989Z,4.50
2018-04-26T18:23:51.441Z,3.73
2018-04-26T18:26:19.084Z,7.63
2018-04-26T18:28:46.581Z,4.00
2018-04-26T18:31:14.073Z,3.77
2018-04-26T18:33:41.624Z,3.80
2018-04-26T18:36:09.242Z,4.60
2018-04-26T18:38:36.989Z,3.40
2018-04-26T18:41:04.496Z,8.47
2018-04-26T18:43:32.070Z,6.30
2018-04-26T18:45:59.767Z,16.03
2018-04-26T18:51:17.932Z,6.20
2018-04-26T18:53:45.448Z,6.40
2018-04-26T18:56:12.932Z,4.13
2018-04-26T18:58:40.762Z,8.87
2018-04-26T19:01:08.246Z,4.40
2018-04-26T19:03:35.997Z,8.70
2018-04-26T19:06:03.500Z,15.77
2018-04-26T19:08:31.070Z,6.33
2018-04-26T19:10:58.551Z,11.60
2018-04-26T19:13:26.049Z,4.00
2018-04-26T19:15:53.525Z,12.67
2018-04-26T19:18:21.399Z,7.33
2018-04-26T19:20:49.362Z,4.07
2018-04-26T19:23:16.869Z,14.07
2018-04-26T19:25:44.320Z,13.83
2018-04-26T19:28:11.756Z,6.10
2018-04-26T19:30:39.312Z,11.90
2018-04-26T19:33:06.832Z,8.13
2018-04-26T19:35:34.324Z,15.43
2018-04-26T19:38:01.777Z,6.00
2018-04-26T19:40:29.266Z,8.70
2018-04-26T19:42:56.744Z,7.43
2018-04-26T19:45:24.332Z,5.33
2018-04-26T19:47:51.826Z,8.23
2018-04-26T19:50:19.779Z,42.90
2018-04-26T19:52:47.290Z,4.93
2018-04-26T19:55:14.735Z,9.87
2018-04-26T19:57:42.312Z,4.40
2018-04-26T20:00:09.772Z,14.23
2018-04-26T20:02:37.359Z,16.87
2018-04-26T20:05:04.873Z,8.80
2018-04-26T20:07:32.595Z,13.37
2018-04-26T20:10:00.262Z,6.00
2018-04-26T20:12:27.859Z,5.70
2018-04-26T20:14:55.350Z,8.20
2018-04-26T20:17:22.843Z,8.70
2018-04-26T20:19:50.395Z,7.57
2018-04-26T20:22:17.896Z,10.60
2018-04-26T20:24:45.335Z,9.17
2018-04-26T20:27:12.784Z,5.23
2018-04-26T20:29:40.294Z,7.03
2018-04-26T20:32:07.743Z,4.60
2018-04-26T20:34:35.216Z,3.70
2018-04-26T20:37:02.748Z,9.40
2018-04-26T20:39:30.203Z,7.13
2018-04-26T20:41:57.761Z,10.60
2018-04-26T20:44:37.099Z,8.67
2018-04-26T20:47:04.579Z,6.90
2018-04-26T20:49:32.034Z,9.90
2018-04-26T20:51:59.484Z,3.27
2018-04-26T20:54:26.969Z,13.20
2018-04-26T20:56:54.481Z,7.63
2018-04-26T20:59:21.952Z,4.87
2018-04-26T21:01:49.499Z,26.33
2018-04-26T21:04:17.012Z,6.50
2018-04-26T21:06:44.557Z,8.10
2018-04-26T21:09:12.053Z,19.90
2018-04-26T21:11:39.553Z,10.63
2018-04-26T21:14:07.174Z,11.40
2018-04-26T21:16:34.640Z,10.17
2018-04-26T21:19:02.157Z,17.37
2018-04-26T21:21:29.674Z,16.63
2018-04-26T21:23:57.293Z,9.37
2018-04-26T21:26:24.821Z,11.47
2018-04-26T21:28:52.320Z,15.40
2018-04-26T21:31:19.809Z,8.53
2018-04-26T21:33:47.321Z,15.20
2018-04-26T21:36:14.827Z,4.33
2018-04-26T21:38:42.349Z,4.10
2018-04-26T21:41:09.877Z,3.90
2018-04-26T21:43:37.361Z,4.30
2018-04-26T21:46:04.871Z,3.90
2018-04-26T21:48:32.421Z,6.40
2018-04-26T21:51:05.624Z,5.70
2018-04-26T21:53:38.695Z,5.67
2018-04-26T21:56:12.089Z,8.20
2018-04-26T21:58:45.320Z,13.17
2018-04-26T22:01:18.484Z,7.10
2018-04-26T22:03:46.133Z,5.43
2018-04-26T22:06:13.653Z,7.20
2018-04-26T22:08:41.176Z,10.90
2018-04-26T22:11:08.692Z,6.30
2018-04-26T22:13:36.230Z,17.70
2018-04-26T22:16:03.752Z,8.47
2018-04-26T22:18:31.315Z,15.97
2018-04-26T22:20:58.831Z,8.57
2018-04-26T22:23:26.347Z,8.93
2018-04-26T22:25:53.934Z,5.07
2018-04-26T22:28:21.475Z,6.23
2018-04-26T22:30:49.014Z,7.03
2018-04-26T22:33:20.386Z,5.20
2018-04-26T22:35:47.890Z,4.13
2018-04-26T22:38:15.504Z,4.87
2018-04-26T22:40:42.976Z,5.37
2018-04-26T22:43:10.447Z,5.67
2018-04-26T22:45:37.956Z,3.80
2018-04-26T22:48:05.458Z,4.60
2018-04-26T22:50:33.100Z,4.20
2018-04-26T22:53:00.664Z,4.90
2018-04-26T22:55:28.165Z,5.80
2018-04-26T22:57:55.636Z,4.93
2018-04-26T23:00:23.137Z,5.50
2018-04-26T23:02:50.611Z,5.63
2018-04-26T23:05:18.122Z,5.47
2018-04-26T23:07:45.661Z,5.43
2018-04-26T23:10:13.153Z,19.23
2018-04-26T23:12:40.625Z,6.73
2018-04-26T23:15:08.182Z,11.50
2018-04-26T23:17:35.748Z,11.00
2018-04-26T23:20:03.277Z,10.87
2018-04-26T23:22:30.777Z,11.20
2018-04-26T23:24:58.292Z,8.60
2018-04-26T23:27:25.800Z,6.83
2018-04-26T23:29:53.326Z,7.20
2018-04-26T23:32:20.865Z,6.60
2018-04-26T23:34:48.352Z,6.80
2018-04-26T23:37:15.857Z,6.30
2018-04-26T23:39:43.390Z,9.20
2018-04-26T23:42:10.870Z,7.40
2018-04-26T23:44:38.390Z,9.70
2018-04-26T23:47:05.907Z,7.80
2018-04-26T23:49:33.380Z,7.80
2018-04-26T23:52:00.881Z,8.13
2018-04-26T23:54:28.415Z,7.20
2018-04-26T23:56:55.888Z,6.43
2018-04-26T23:59:23.401Z,7.20
